createdAt,value
2022-07-25T00:02:07.942Z,8.23
2022-07-25T00:04:35.852Z,8.68
2022-07-25T00:07:02.960Z,8.80
2022-07-25T00:09:29.770Z,10.02
2022-07-25T00:11:56.603Z,8.73
2022-07-25T00:14:23.405Z,10.57
2022-07-25T00:16:50.210Z,6.10
2022-07-25T00:19:17.490Z,8.82
2022-07-25T00:21:44.520Z,9.50
2022-07-25T00:24:11.309Z,6.50
2022-07-25T00:26:40.405Z,8.10
2022-07-25T00:29:07.980Z,6.70
2022-07-25T00:31:35.312Z,8.05
2022-07-25T00:34:02.941Z,7.60
2022-07-25T00:36:30.015Z,8.52
2022-07-25T00:38:56.808Z,7.75
2022-07-25T00:41:23.670Z,7.35
2022-07-25T00:43:50.592Z,8.02
2022-07-25T00:46:18.773Z,6.65
2022-07-25T00:48:47.025Z,8.02
2022-07-25T00:51:15.593Z,7.63
2022-07-25T00:53:42.597Z,6.95
2022-07-25T00:56:09.527Z,7.80
2022-07-25T00:58:37.016Z,6.43
2022-07-25T01:01:05.129Z,6.38
2022-07-25T01:03:32.141Z,7.43
2022-07-25T01:05:59.344Z,9.63
2022-07-25T01:08:26.239Z,8.48
2022-07-25T01:10:53.383Z,10.52
2022-07-25T01:13:20.845Z,6.47
2022-07-25T01:15:47.833Z,7.88
2022-07-25T01:18:14.800Z,7.95
2022-07-25T01:20:41.704Z,8.20
2022-07-25T01:23:08.575Z,9.30
2022-07-25T01:25:35.494Z,7.78
2022-07-25T01:28:02.322Z,10.10
2022-07-25T01:30:29.226Z,7.22
2022-07-25T01:32:56.079Z,7.93
2022-07-25T01:35:22.946Z,9.73
2022-07-25T01:37:49.785Z,6.07
2022-07-25T01:40:16.629Z,9.20
2022-07-25T01:42:44.109Z,7.68
2022-07-25T01:45:12.032Z,7.72
2022-07-25T01:47:39.150Z,7.60
2022-07-25T01:50:06.745Z,7.93
2022-07-25T01:52:33.551Z,7.75
2022-07-25T01:55:00.473Z,7.60
2022-07-25T01:57:30.709Z,9.73
2022-07-25T01:59:59.202Z,7.47
2022-07-25T02:02:26.724Z,7.28
2022-07-25T02:04:55.010Z,6.47
2022-07-25T02:07:21.824Z,8.10
2022-07-25T02:09:51.060Z,7.40
2022-07-25T02:12:21.679Z,6.25
2022-07-25T02:14:48.493Z,6.10
2022-07-25T02:17:15.467Z,7.43
2022-07-25T02:19:42.561Z,9.57
2022-07-25T02:22:09.366Z,8.45
2022-07-25T02:24:37.175Z,6.97
2022-07-25T02:27:05.100Z,9.07
2022-07-25T02:29:32.594Z,6.10
2022-07-25T02:31:59.817Z,9.70
2022-07-25T02:34:26.603Z,10.50
2022-07-25T02:36:53.446Z,7.05
2022-07-25T02:39:21.280Z,7.78
2022-07-25T02:41:48.134Z,9.82
2022-07-25T02:44:14.951Z,10.25
2022-07-25T02:46:41.728Z,7.88
2022-07-25T02:49:08.569Z,10.55
2022-07-25T02:51:35.405Z,6.40
2022-07-25T02:54:02.287Z,9.40
2022-07-25T02:56:29.740Z,7.50
2022-07-25T02:58:57.732Z,8.02
2022-07-25T03:01:24.759Z,7.85
2022-07-25T03:03:51.829Z,13.27
2022-07-25T03:06:18.741Z,6.50
2022-07-25T03:08:45.935Z,6.90
2022-07-25T03:11:13.423Z,8.43
2022-07-25T03:13:40.318Z,8.15
2022-07-25T03:16:08.158Z,11.50
2022-07-25T03:18:34.963Z,7.60
2022-07-25T03:21:01.839Z,11.93
2022-07-25T03:23:28.680Z,8.27
2022-07-25T03:25:56.264Z,6.35
2022-07-25T03:28:24.784Z,7.22
2022-07-25T03:30:52.591Z,9.00
2022-07-25T03:33:19.647Z,11.57
2022-07-25T03:35:46.595Z,10.70
2022-07-25T03:38:13.559Z,7.97
2022-07-25T03:40:40.609Z,6.93
2022-07-25T03:43:07.448Z,10.10
2022-07-25T03:45:34.519Z,6.85
2022-07-25T03:48:01.376Z,7.03
2022-07-25T03:50:28.340Z,8.48
2022-07-25T03:52:55.182Z,9.15
2022-07-25T03:55:22.134Z,9.88
2022-07-25T03:57:49.019Z,9.45
2022-07-25T04:00:16.149Z,13.57
2022-07-25T04:02:43.112Z,11.45
2022-07-25T04:05:10.487Z,11.35
2022-07-25T04:07:38.164Z,7.97
2022-07-25T04:10:06.458Z,7.63
2022-07-25T04:12:33.386Z,9.73
2022-07-25T04:15:00.233Z,8.35
2022-07-25T04:17:27.027Z,8.88
2022-07-25T04:19:53.934Z,7.18
2022-07-25T04:22:22.280Z,9.75
2022-07-25T04:24:49.085Z,9.13
2022-07-25T04:27:15.882Z,9.68
2022-07-25T04:29:42.663Z,10.93
2022-07-25T04:32:09.610Z,9.73
2022-07-25T04:34:36.492Z,10.48
2022-07-25T04:37:03.328Z,8.20
2022-07-25T04:39:30.101Z,8.48
2022-07-25T04:41:56.889Z,14.02
2022-07-25T04:44:24.474Z,11.02
2022-07-25T04:46:51.340Z,12.48
2022-07-25T04:49:18.189Z,8.60
2022-07-25T04:51:45.036Z,8.85
2022-07-25T04:54:11.921Z,7.63
2022-07-25T04:56:38.739Z,7.55
2022-07-25T04:59:06.255Z,10.30
2022-07-25T05:01:34.536Z,7.40
2022-07-25T05:04:01.753Z,7.40
2022-07-25T05:06:28.719Z,12.13
2022-07-25T05:08:55.633Z,7.53
2022-07-25T05:11:22.659Z,13.77
2022-07-25T05:13:49.483Z,7.80
2022-07-25T05:16:16.508Z,7.15
2022-07-25T05:18:43.417Z,8.38
2022-07-25T05:21:12.273Z,10.38
2022-07-25T05:23:39.435Z,5.97
2022-07-25T05:26:06.536Z,10.85
2022-07-25T05:28:33.699Z,8.45
2022-07-25T05:31:00.515Z,8.10
2022-07-25T05:33:27.423Z,11.80
2022-07-25T05:35:54.199Z,9.23
2022-07-25T05:38:21.280Z,13.77
2022-07-25T05:40:48.901Z,12.70
2022-07-25T05:43:15.690Z,9.10
2022-07-25T05:45:42.535Z,9.82
2022-07-25T05:48:09.374Z,9.45
2022-07-25T05:50:39.055Z,13.60
2022-07-25T05:53:05.866Z,7.88
2022-07-25T05:55:32.689Z,9.95
2022-07-25T05:57:59.661Z,11.60
2022-07-25T06:00:29.412Z,12.30
2022-07-25T06:03:00.510Z,10.57
2022-07-25T06:05:27.813Z,7.00
2022-07-25T06:07:54.754Z,8.02
2022-07-25T06:10:22.240Z,10.88
2022-07-25T06:12:49.263Z,8.20
2022-07-25T06:15:22.300Z,14.77
2022-07-25T06:17:52.782Z,9.40
2022-07-25T06:20:19.686Z,10.07
2022-07-25T06:22:46.469Z,10.27
2022-07-25T06:25:13.329Z,13.55
2022-07-25T06:27:40.269Z,10.05
2022-07-25T06:30:18.605Z,9.38
2022-07-25T06:32:47.301Z,16.97
2022-07-25T06:35:14.218Z,9.48
2022-07-25T06:37:43.286Z,10.27
2022-07-25T06:40:10.799Z,7.80
2022-07-25T06:42:42.631Z,12.35
2022-07-25T06:45:10.986Z,11.80
2022-07-25T06:47:39.272Z,12.13
2022-07-25T06:50:08.474Z,7.15
2022-07-25T06:52:38.605Z,10.70
2022-07-25T06:55:06.532Z,14.57
2022-07-25T06:57:33.798Z,10.02
2022-07-25T07:00:00.913Z,12.00
2022-07-25T07:02:27.703Z,18.10
2022-07-25T07:04:54.539Z,7.65
2022-07-25T07:07:21.334Z,9.93
2022-07-25T07:09:48.221Z,9.20
2022-07-25T07:12:15.013Z,19.40
2022-07-25T07:14:44.332Z,14.73
2022-07-25T07:17:11.182Z,10.93
2022-07-25T07:19:43.883Z,10.60
2022-07-25T07:22:10.747Z,11.02
2022-07-25T07:24:42.840Z,12.88
2022-07-25T07:27:11.142Z,10.43
2022-07-25T07:29:37.972Z,10.10
2022-07-25T07:32:06.571Z,9.07
2022-07-25T07:34:33.493Z,11.77
2022-07-25T07:37:00.290Z,10.68
2022-07-25T07:39:27.080Z,15.20
2022-07-25T07:41:54.024Z,13.10
2022-07-25T07:44:20.817Z,10.77
2022-07-25T07:46:47.836Z,14.30
2022-07-25T07:49:14.716Z,12.80
2022-07-25T07:51:41.484Z,12.20
2022-07-25T07:54:27.000Z,8.85
2022-07-25T07:56:53.891Z,12.15
2022-07-25T07:59:20.757Z,10.43
2022-07-25T08:01:47.593Z,9.15
2022-07-25T08:04:15.580Z,7.35
2022-07-25T08:06:43.182Z,9.60
2022-07-25T08:09:10.386Z,9.70
2022-07-25T08:11:37.340Z,8.05
2022-07-25T08:14:05.562Z,12.00
2022-07-25T08:16:33.420Z,14.35
2022-07-25T08:19:00.458Z,11.57
2022-07-25T08:21:27.324Z,12.82
2022-07-25T08:23:54.351Z,10.35
2022-07-25T08:26:21.219Z,10.40
2022-07-25T08:28:52.583Z,9.77
2022-07-25T08:31:27.321Z,9.10
2022-07-25T08:33:54.238Z,8.57
2022-07-25T08:36:21.064Z,10.55
2022-07-25T08:38:47.878Z,15.07
2022-07-25T08:41:14.677Z,11.88
2022-07-25T08:43:43.288Z,14.63
2022-07-25T08:46:10.660Z,8.65
2022-07-25T08:48:39.012Z,12.23
2022-07-25T08:51:07.146Z,19.88
2022-07-25T08:53:36.212Z,10.25
2022-07-25T08:56:15.968Z,14.40
2022-07-25T08:58:46.146Z,11.93
2022-07-25T09:01:14.531Z,17.02
2022-07-25T09:03:43.231Z,15.93
2022-07-25T09:06:21.905Z,11.55
2022-07-25T09:09:08.605Z,12.77
2022-07-25T09:11:37.709Z,14.82
2022-07-25T09:14:11.232Z,11.73
2022-07-25T09:16:44.618Z,9.50
2022-07-25T09:19:17.348Z,11.53
2022-07-25T09:21:46.093Z,6.68
2022-07-25T09:24:17.498Z,14.18
2022-07-25T09:26:53.425Z,11.55
2022-07-25T09:29:40.456Z,7.65
2022-07-25T09:32:23.859Z,10.05
2022-07-25T09:34:51.323Z,16.10
2022-07-25T09:37:25.176Z,14.20
2022-07-25T09:39:52.582Z,10.50
2022-07-25T09:42:24.796Z,13.27
2022-07-25T09:44:59.798Z,8.63
2022-07-25T09:47:26.794Z,11.85
2022-07-25T09:49:53.807Z,17.50
2022-07-25T09:52:20.646Z,9.13
2022-07-25T09:54:47.544Z,12.30
2022-07-25T09:57:14.446Z,9.40
2022-07-25T09:59:41.513Z,9.10
2022-07-25T10:02:33.026Z,14.43
2022-07-25T10:05:18.066Z,7.90
2022-07-25T10:07:51.452Z,12.02
2022-07-25T10:10:30.558Z,16.50
2022-07-25T10:13:30.936Z,10.55
2022-07-25T10:15:58.652Z,10.35
2022-07-25T10:18:28.208Z,18.73
2022-07-25T10:21:25.771Z,9.80
2022-07-25T10:24:07.419Z,24.80
2022-07-25T10:26:42.448Z,11.15
2022-07-25T10:29:11.401Z,11.90
2022-07-25T10:31:49.900Z,12.93
2022-07-25T10:34:29.609Z,10.43
2022-07-25T10:36:57.279Z,12.13
2022-07-25T10:39:24.314Z,11.05
2022-07-25T10:42:00.301Z,12.25
2022-07-25T10:44:30.598Z,11.20
2022-07-25T10:47:08.777Z,9.23
2022-07-25T10:49:37.574Z,11.48
2022-07-25T10:52:05.343Z,12.13
2022-07-25T10:54:38.025Z,9.95
2022-07-25T10:57:07.160Z,7.60
2022-07-25T10:59:37.007Z,14.02
2022-07-25T11:02:06.768Z,11.13
2022-07-25T11:04:34.189Z,9.13
2022-07-25T11:07:12.449Z,7.78
2022-07-25T11:09:40.556Z,9.40
2022-07-25T11:12:08.345Z,13.23
2022-07-25T11:14:43.802Z,12.18
2022-07-25T11:17:10.625Z,11.38
2022-07-25T11:19:37.541Z,9.48
2022-07-25T11:22:04.576Z,7.72
2022-07-25T11:24:46.162Z,12.77
2022-07-25T11:27:30.738Z,9.15
2022-07-25T11:30:10.438Z,14.45
2022-07-25T11:32:41.127Z,10.53
2022-07-25T11:35:08.630Z,8.32
2022-07-25T11:37:38.729Z,9.82
2022-07-25T11:40:07.249Z,8.43
2022-07-25T11:42:42.159Z,7.40
2022-07-25T11:45:24.006Z,8.95
2022-07-25T11:48:12.573Z,12.07
2022-07-25T11:50:41.642Z,9.25
2022-07-25T11:53:11.370Z,8.65
2022-07-25T11:55:43.092Z,10.27
2022-07-25T11:58:11.419Z,12.93
2022-07-25T12:00:45.057Z,9.25
2022-07-25T12:03:19.586Z,10.88
2022-07-25T12:05:47.690Z,13.05
2022-07-25T12:08:19.915Z,9.68
2022-07-25T12:10:48.392Z,16.77
2022-07-25T12:13:25.479Z,15.20
2022-07-25T12:15:52.779Z,15.13
2022-07-25T12:18:19.552Z,8.98
2022-07-25T12:20:46.464Z,10.07
2022-07-25T12:23:14.055Z,9.15
2022-07-25T12:25:43.739Z,10.80
2022-07-25T12:28:11.412Z,7.80
2022-07-25T12:30:41.500Z,12.20
2022-07-25T12:33:09.092Z,15.93
2022-07-25T12:35:39.161Z,13.27
2022-07-25T12:38:06.065Z,13.27
2022-07-25T12:40:33.658Z,11.60
2022-07-25T12:43:01.158Z,11.30
2022-07-25T12:45:28.457Z,11.68
2022-07-25T12:47:55.655Z,17.48
2022-07-25T12:50:22.553Z,11.50
2022-07-25T12:52:49.412Z,11.38
2022-07-25T12:55:18.860Z,9.48
2022-07-25T12:57:46.980Z,11.30
2022-07-25T13:00:16.826Z,13.70
2022-07-25T13:02:44.277Z,10.05
2022-07-25T13:05:11.492Z,10.30
2022-07-25T13:07:38.598Z,13.43
2022-07-25T13:10:06.431Z,13.43
2022-07-25T13:12:33.323Z,8.10
2022-07-25T13:15:00.477Z,11.98
2022-07-25T13:17:28.064Z,10.18
2022-07-25T13:19:56.354Z,42.42
2022-07-25T13:22:23.510Z,13.10
2022-07-25T13:24:50.670Z,12.80
2022-07-25T13:27:22.028Z,12.73
2022-07-25T13:29:54.361Z,10.98
2022-07-25T13:32:22.790Z,9.38
2022-07-25T13:34:50.016Z,12.85
2022-07-25T13:37:16.992Z,24.55
2022-07-25T13:39:43.879Z,16.08
2022-07-25T13:42:11.191Z,12.07
2022-07-25T13:44:38.075Z,14.18
2022-07-25T13:47:05.170Z,11.32
2022-07-25T13:49:32.610Z,11.07
2022-07-25T13:51:59.436Z,11.55
2022-07-25T13:54:26.267Z,9.40
2022-07-25T13:56:53.289Z,11.77
2022-07-25T13:59:21.633Z,11.68
2022-07-25T14:01:49.423Z,13.93
2022-07-25T14:04:16.545Z,12.45
2022-07-25T14:06:43.630Z,32.67
2022-07-25T14:09:10.894Z,10.32
2022-07-25T14:11:38.184Z,9.43
2022-07-25T14:14:05.138Z,15.43
2022-07-25T14:16:33.789Z,14.65
2022-07-25T14:19:02.178Z,14.70
2022-07-25T14:21:29.723Z,10.30
2022-07-25T14:23:56.663Z,13.27
2022-07-25T14:26:23.424Z,12.70
2022-07-25T14:28:50.787Z,12.85
2022-07-25T14:31:17.657Z,13.05
2022-07-25T14:33:44.521Z,16.45
2022-07-25T14:36:11.483Z,10.50
2022-07-25T14:38:38.445Z,19.52
2022-07-25T14:41:12.128Z,16.73
2022-07-25T14:43:40.691Z,19.00
2022-07-25T14:46:08.313Z,11.55
2022-07-25T14:48:38.939Z,9.80
2022-07-25T14:51:06.554Z,12.77
2022-07-25T14:53:34.437Z,10.35
2022-07-25T14:56:03.481Z,15.30
2022-07-25T14:58:33.677Z,9.68
2022-07-25T15:01:00.672Z,10.02
2022-07-25T15:03:27.679Z,10.68
2022-07-25T15:05:54.464Z,23.25
2022-07-25T15:08:21.351Z,9.38
2022-07-25T15:10:48.314Z,14.00
2022-07-25T15:13:31.976Z,12.27
2022-07-25T15:16:00.011Z,11.50
2022-07-25T15:18:27.325Z,14.48
2022-07-25T15:20:55.294Z,17.65
2022-07-25T15:23:24.699Z,10.18
2022-07-25T15:26:08.673Z,18.77
2022-07-25T15:28:37.520Z,23.77
2022-07-25T15:31:05.710Z,50.80
2022-07-25T15:33:33.468Z,15.35
2022-07-25T15:36:00.336Z,15.02
2022-07-25T15:38:28.814Z,10.30
2022-07-25T15:40:55.729Z,13.57
2022-07-25T15:43:22.584Z,9.00
2022-07-25T15:45:49.408Z,14.05
2022-07-25T15:48:17.552Z,11.18
2022-07-25T15:50:47.477Z,14.63
2022-07-25T15:53:15.284Z,11.43
2022-07-25T15:55:43.159Z,10.98
2022-07-25T15:58:11.003Z,16.65
2022-07-25T16:00:38.789Z,7.78
2022-07-25T16:03:06.007Z,9.15
2022-07-25T16:05:32.935Z,9.57
2022-07-25T16:08:03.199Z,12.43
2022-07-25T16:12:57.793Z,12.23
2022-07-25T16:15:25.361Z,16.90
2022-07-25T16:18:00.090Z,31.88
2022-07-25T16:20:31.208Z,17.33
2022-07-25T16:22:59.325Z,17.73
2022-07-25T16:25:27.821Z,13.63
2022-07-25T16:27:55.117Z,9.70
2022-07-25T16:30:22.471Z,8.68
2022-07-25T16:32:49.761Z,12.38
2022-07-25T16:35:16.849Z,12.18
2022-07-25T16:37:43.699Z,12.07
2022-07-25T16:40:10.939Z,10.98
2022-07-25T16:42:38.270Z,12.43
2022-07-25T16:45:06.307Z,9.13
2022-07-25T16:47:33.286Z,37.78
2022-07-25T16:50:00.295Z,14.35
2022-07-25T16:52:27.176Z,21.45
2022-07-25T16:54:54.034Z,13.93
2022-07-25T16:57:24.928Z,7.40
2022-07-25T16:59:53.364Z,9.07
2022-07-25T17:02:24.867Z,10.10
2022-07-25T17:04:54.668Z,11.65
2022-07-25T17:07:21.722Z,9.57
2022-07-25T17:09:49.545Z,9.27
2022-07-25T17:12:17.488Z,9.32
2022-07-25T17:14:45.026Z,22.33
2022-07-25T17:17:12.013Z,12.93
2022-07-25T17:19:40.216Z,10.68
2022-07-25T17:22:08.370Z,9.07
2022-07-25T17:24:36.186Z,10.55
2022-07-25T17:27:03.272Z,12.43
2022-07-25T17:29:30.271Z,9.52
2022-07-25T17:31:57.276Z,8.05
2022-07-25T17:34:26.136Z,14.82
2022-07-25T17:36:54.084Z,8.45
2022-07-25T17:39:20.879Z,7.18
2022-07-25T17:41:47.944Z,9.18
2022-07-25T17:44:15.037Z,9.90
2022-07-25T17:46:42.608Z,7.05
2022-07-25T17:49:09.730Z,6.72
2022-07-25T17:51:36.674Z,12.43
2022-07-25T17:54:03.500Z,11.73
2022-07-25T17:56:30.315Z,11.27
2022-07-25T17:58:57.113Z,11.27
2022-07-25T18:01:23.961Z,15.40
2022-07-25T18:03:51.124Z,12.32
2022-07-25T18:06:17.910Z,11.15
2022-07-25T18:08:44.931Z,9.05
2022-07-25T18:11:11.692Z,9.98
2022-07-25T18:13:38.573Z,7.07
2022-07-25T18:16:06.252Z,8.48
2022-07-25T18:18:33.184Z,12.30
2022-07-25T18:21:00.044Z,8.88
2022-07-25T18:23:28.664Z,18.92
2022-07-25T18:25:55.551Z,12.77
2022-07-25T18:28:22.731Z,16.42
2022-07-25T18:30:52.374Z,11.30
2022-07-25T18:33:20.305Z,11.60
2022-07-25T18:35:47.163Z,11.95
2022-07-25T18:38:13.947Z,8.75
2022-07-25T18:40:40.812Z,12.50
2022-07-25T18:43:08.830Z,8.73
2022-07-25T18:45:39.276Z,11.30
2022-07-25T18:48:06.967Z,10.57
2022-07-25T18:50:34.009Z,9.77
2022-07-25T18:53:00.835Z,9.63
2022-07-25T18:55:27.677Z,9.20
2022-07-25T18:57:54.883Z,10.30
2022-07-25T19:00:21.772Z,9.75
2022-07-25T19:02:48.914Z,10.45
2022-07-25T19:05:15.840Z,13.02
2022-07-25T19:07:43.062Z,10.80
2022-07-25T19:10:10.910Z,12.88
2022-07-25T19:12:38.166Z,10.30
2022-07-25T19:15:06.127Z,10.40
2022-07-25T19:17:33.909Z,12.02
2022-07-25T19:20:01.141Z,11.95
2022-07-25T19:22:27.931Z,10.25
2022-07-25T19:24:54.807Z,9.98
2022-07-25T19:27:23.835Z,12.07
2022-07-25T19:29:50.643Z,11.25
2022-07-25T19:32:18.215Z,10.57
2022-07-25T19:34:45.367Z,8.75
2022-07-25T19:37:12.183Z,8.88
2022-07-25T19:39:38.988Z,11.82
2022-07-25T19:42:10.719Z,11.65
2022-07-25T19:44:37.650Z,11.63
2022-07-25T19:47:11.311Z,12.23
2022-07-25T19:49:40.047Z,8.80
2022-07-25T19:52:10.503Z,10.32
2022-07-25T19:54:37.889Z,10.68
2022-07-25T19:57:05.251Z,10.93
2022-07-25T19:59:32.135Z,11.00
2022-07-25T20:01:59.359Z,8.57
2022-07-25T20:04:26.708Z,9.73
2022-07-25T20:06:53.733Z,35.83
2022-07-25T20:09:20.677Z,8.75
2022-07-25T20:11:47.483Z,8.43
2022-07-25T20:14:14.406Z,10.48
2022-07-25T20:16:41.355Z,13.95
2022-07-25T20:19:11.217Z,11.18
2022-07-25T20:21:39.420Z,9.73
2022-07-25T20:24:06.598Z,11.13
2022-07-25T20:26:33.523Z,10.55
2022-07-25T20:29:00.517Z,7.85
2022-07-25T20:31:27.404Z,12.60
2022-07-25T20:33:54.328Z,13.32
2022-07-25T20:36:21.199Z,12.63
2022-07-25T20:38:47.956Z,11.18
2022-07-25T20:41:15.473Z,11.73
2022-07-25T20:43:42.742Z,10.05
2022-07-25T20:46:09.698Z,11.10
2022-07-25T20:48:36.891Z,9.95
2022-07-25T20:51:03.998Z,8.82
2022-07-25T20:53:31.150Z,13.52
2022-07-25T20:55:58.405Z,10.82
2022-07-25T20:58:25.225Z,10.32
2022-07-25T21:00:52.257Z,11.00
2022-07-25T21:03:19.217Z,8.82
2022-07-25T21:05:46.133Z,11.15
2022-07-25T21:08:13.029Z,11.82
2022-07-25T21:10:39.888Z,9.70
2022-07-25T21:13:07.083Z,14.40
2022-07-25T21:15:34.005Z,12.50
2022-07-25T21:18:01.232Z,45.67
2022-07-25T21:20:28.185Z,48.40
2022-07-25T21:22:55.359Z,59.60
2022-07-25T21:25:22.366Z,60.60
2022-07-25T21:27:49.407Z,46.92
2022-07-25T21:30:16.238Z,48.78
2022-07-25T21:32:44.442Z,22.67
2022-07-25T21:35:11.594Z,33.35
2022-07-25T21:37:38.499Z,32.10
2022-07-25T21:40:06.203Z,30.45
2022-07-25T21:42:32.988Z,39.50
2022-07-25T21:44:59.912Z,25.20
2022-07-25T21:47:26.756Z,18.90
2022-07-25T21:50:13.113Z,28.58
2022-07-25T21:52:40.146Z,20.90
2022-07-25T21:55:07.929Z,26.33
2022-07-25T21:57:34.870Z,22.63
2022-07-25T22:00:01.702Z,20.17
2022-07-25T22:02:28.501Z,24.77
2022-07-25T22:04:55.320Z,19.63
2022-07-25T22:07:22.896Z,25.58
2022-07-25T22:09:50.710Z,17.60
2022-07-25T22:12:17.782Z,21.13
2022-07-25T22:14:44.631Z,24.30
2022-07-25T22:17:13.617Z,17.55
2022-07-25T22:19:40.723Z,15.98
2022-07-25T22:22:07.594Z,9.95
2022-07-25T22:24:34.432Z,9.80
2022-07-25T22:27:01.299Z,5.90
2022-07-25T22:29:28.089Z,10.00
2022-07-25T22:31:55.197Z,6.13
2022-07-25T22:34:22.270Z,7.03
2022-07-25T22:36:49.076Z,6.10
2022-07-25T22:39:16.849Z,9.80
2022-07-25T22:41:43.967Z,6.75
2022-07-25T22:44:10.881Z,7.78
2022-07-25T22:46:37.796Z,16.13
2022-07-25T22:49:04.777Z,6.00
2022-07-25T22:51:31.790Z,9.38
2022-07-25T22:53:59.439Z,6.00
2022-07-25T22:56:27.541Z,7.82
2022-07-25T22:58:54.784Z,7.68
2022-07-25T23:01:22.080Z,4.97
2022-07-25T23:03:50.194Z,4.78
2022-07-25T23:06:18.654Z,4.55
2022-07-25T23:08:45.971Z,4.20
2022-07-25T23:11:12.978Z,4.38
2022-07-25T23:13:39.764Z,3.67
2022-07-25T23:16:10.452Z,4.28
2022-07-25T23:18:38.708Z,4.05
2022-07-25T23:21:06.269Z,3.38
2022-07-25T23:23:33.294Z,4.15
2022-07-25T23:26:00.119Z,5.32
2022-07-25T23:28:27.096Z,5.53
2022-07-25T23:30:53.847Z,5.18
2022-07-25T23:33:21.986Z,3.47
2022-07-25T23:35:52.418Z,2.30
2022-07-25T23:38:19.210Z,2.50
2022-07-25T23:40:46.133Z,2.80
2022-07-25T23:43:13.597Z,5.95
2022-07-25T23:45:43.142Z,4.13
2022-07-25T23:48:13.357Z,4.97
2022-07-25T23:50:40.119Z,8.23
2022-07-25T23:53:07.039Z,6.30
2022-07-25T23:55:33.832Z,8.00
2022-07-25T23:58:00.583Z,5.80
